sensor_id;sensor_type;location;lat;lon;timestamp;P1;durP1;ratioP1;P2;durP2;ratioP2
57337;SDS011;43173;50.980;18.204;2022-11-20T00:00:45;34.70;;;16.50;;
57337;SDS011;43173;50.980;18.204;2022-11-20T00:03:11;46.20;;;19.40;;
57337;SDS011;43173;50.980;18.204;2022-11-20T00:05:37;41.80;;;18.00;;
57337;SDS011;43173;50.980;18.204;2022-11-20T00:08:03;41.50;;;17.50;;
57337;SDS011;43173;50.980;18.204;2022-11-20T00:10:29;44.80;;;18.70;;
57337;SDS011;43173;50.980;18.204;2022-11-20T00:12:57;53.10;;;20.70;;
57337;SDS011;43173;50.980;18.204;2022-11-20T00:15:23;56.00;;;20.60;;
57337;SDS011;43173;50.980;18.204;2022-11-20T00:17:49;55.70;;;19.30;;
57337;SDS011;43173;50.980;18.204;2022-11-20T00:20:14;43.30;;;16.20;;
57337;SDS011;43173;50.980;18.204;2022-11-20T00:22:40;41.40;;;18.00;;
57337;SDS011;43173;50.980;18.204;2022-11-20T00:25:06;46.00;;;19.20;;
57337;SDS011;43173;50.980;18.204;2022-11-20T00:27:31;40.10;;;17.80;;
57337;SDS011;43173;50.980;18.204;2022-11-20T00:29:57;41.20;;;17.30;;
57337;SDS011;43173;50.980;18.204;2022-11-20T00:32:23;40.60;;;17.50;;
57337;SDS011;43173;50.980;18.204;2022-11-20T00:34:48;42.30;;;16.30;;
57337;SDS011;43173;50.980;18.204;2022-11-20T00:37:14;39.50;;;17.90;;
57337;SDS011;43173;50.980;18.204;2022-11-20T00:39:39;41.40;;;18.10;;
57337;SDS011;43173;50.980;18.204;2022-11-20T00:42:05;44.70;;;18.50;;
57337;SDS011;43173;50.980;18.204;2022-11-20T00:44:31;46.70;;;18.70;;
57337;SDS011;43173;50.980;18.204;2022-11-20T00:46:56;46.30;;;18.10;;
57337;SDS011;43173;50.980;18.204;2022-11-20T00:49:22;43.20;;;18.00;;
57337;SDS011;43173;50.980;18.204;2022-11-20T00:51:47;48.60;;;20.50;;
57337;SDS011;43173;50.980;18.204;2022-11-20T00:54:13;54.00;;;22.60;;
57337;SDS011;43173;50.980;18.204;2022-11-20T00:56:38;53.10;;;22.70;;
57337;SDS011;43173;50.980;18.204;2022-11-20T00:59:05;47.00;;;20.80;;
57337;SDS011;43173;50.980;18.204;2022-11-20T01:01:31;53.70;;;19.40;;
57337;SDS011;43173;50.980;18.204;2022-11-20T01:03:58;49.40;;;21.10;;
57337;SDS011;43173;50.980;18.204;2022-11-20T01:06:26;50.70;;;22.30;;
57337;SDS011;43173;50.980;18.204;2022-11-20T01:08:54;46.30;;;21.70;;
57337;SDS011;43173;50.980;18.204;2022-11-20T01:11:29;55.30;;;22.00;;
57337;SDS011;43173;50.980;18.204;2022-11-20T01:13:56;55.40;;;22.00;;
57337;SDS011;43173;50.980;18.204;2022-11-20T01:16:27;51.20;;;22.00;;
57337;SDS011;43173;50.980;18.204;2022-11-20T01:18:55;47.90;;;20.70;;
57337;SDS011;43173;50.980;18.204;2022-11-20T01:21:25;44.10;;;18.80;;
57337;SDS011;43173;50.980;18.204;2022-11-20T01:23:55;36.30;;;15.40;;
57337;SDS011;43173;50.980;18.204;2022-11-20T01:26:22;32.50;;;13.20;;
57337;SDS011;43173;50.980;18.204;2022-11-20T01:28:49;36.40;;;15.80;;
57337;SDS011;43173;50.980;18.204;2022-11-20T01:31:16;43.70;;;16.70;;
57337;SDS011;43173;50.980;18.204;2022-11-20T01:33:45;39.80;;;16.00;;
57337;SDS011;43173;50.980;18.204;2022-11-20T01:36:12;29.10;;;14.00;;
57337;SDS011;43173;50.980;18.204;2022-11-20T01:38:38;47.40;;;19.60;;
57337;SDS011;43173;50.980;18.204;2022-11-20T01:41:05;48.80;;;19.20;;
57337;SDS011;43173;50.980;18.204;2022-11-20T01:43:31;39.20;;;16.40;;
57337;SDS011;43173;50.980;18.204;2022-11-20T01:49:04;42.80;;;18.70;;
57337;SDS011;43173;50.980;18.204;2022-11-20T01:54:00;50.30;;;21.00;;
57337;SDS011;43173;50.980;18.204;2022-11-20T01:56:28;50.20;;;20.40;;
57337;SDS011;43173;50.980;18.204;2022-11-20T01:58:58;49.90;;;19.70;;
57337;SDS011;43173;50.980;18.204;2022-11-20T02:01:26;46.60;;;18.30;;
57337;SDS011;43173;50.980;18.204;2022-11-20T02:03:51;47.60;;;20.70;;
57337;SDS011;43173;50.980;18.204;2022-11-20T02:09:10;39.30;;;18.20;;
57337;SDS011;43173;50.980;18.204;2022-11-20T02:11:36;44.00;;;18.00;;
57337;SDS011;43173;50.980;18.204;2022-11-20T02:14:02;47.20;;;19.10;;
57337;SDS011;43173;50.980;18.204;2022-11-20T02:16:31;48.80;;;20.50;;
57337;SDS011;43173;50.980;18.204;2022-11-20T02:24:19;42.50;;;19.10;;
57337;SDS011;43173;50.980;18.204;2022-11-20T02:26:49;51.60;;;20.00;;
57337;SDS011;43173;50.980;18.204;2022-11-20T02:29:24;43.80;;;19.00;;
57337;SDS011;43173;50.980;18.204;2022-11-20T02:31:52;54.10;;;20.90;;
57337;SDS011;43173;50.980;18.204;2022-11-20T02:34:20;47.70;;;20.70;;
57337;SDS011;43173;50.980;18.204;2022-11-20T02:36:45;49.80;;;20.80;;
57337;SDS011;43173;50.980;18.204;2022-11-20T02:39:12;51.20;;;20.80;;
57337;SDS011;43173;50.980;18.204;2022-11-20T02:41:38;50.00;;;19.70;;
57337;SDS011;43173;50.980;18.204;2022-11-20T02:44:05;50.00;;;20.80;;
57337;SDS011;43173;50.980;18.204;2022-11-20T02:46:31;54.70;;;20.90;;
57337;SDS011;43173;50.980;18.204;2022-11-20T02:48:58;51.80;;;22.10;;
57337;SDS011;43173;50.980;18.204;2022-11-20T02:51:23;45.90;;;19.10;;
57337;SDS011;43173;50.980;18.204;2022-11-20T02:53:49;49.90;;;21.50;;
57337;SDS011;43173;50.980;18.204;2022-11-20T02:56:15;49.90;;;21.60;;
57337;SDS011;43173;50.980;18.204;2022-11-20T02:58:41;57.00;;;22.50;;
57337;SDS011;43173;50.980;18.204;2022-11-20T03:01:07;59.10;;;23.60;;
57337;SDS011;43173;50.980;18.204;2022-11-20T03:03:33;51.00;;;22.50;;
57337;SDS011;43173;50.980;18.204;2022-11-20T03:05:58;54.10;;;21.60;;
57337;SDS011;43173;50.980;18.204;2022-11-20T03:08:24;53.00;;;23.00;;
57337;SDS011;43173;50.980;18.204;2022-11-20T03:10:50;54.70;;;23.60;;
57337;SDS011;43173;50.980;18.204;2022-11-20T03:13:16;51.90;;;21.60;;
57337;SDS011;43173;50.980;18.204;2022-11-20T03:15:42;54.40;;;22.90;;
57337;SDS011;43173;50.980;18.204;2022-11-20T03:18:08;60.30;;;24.20;;
57337;SDS011;43173;50.980;18.204;2022-11-20T03:20:33;51.80;;;22.10;;
57337;SDS011;43173;50.980;18.204;2022-11-20T03:22:59;65.90;;;26.80;;
57337;SDS011;43173;50.980;18.204;2022-11-20T03:25:25;64.80;;;26.00;;
57337;SDS011;43173;50.980;18.204;2022-11-20T03:27:51;59.00;;;23.90;;
57337;SDS011;43173;50.980;18.204;2022-11-20T03:30:17;70.00;;;26.90;;
57337;SDS011;43173;50.980;18.204;2022-11-20T03:32:43;71.30;;;27.40;;
57337;SDS011;43173;50.980;18.204;2022-11-20T03:35:09;63.90;;;27.70;;
57337;SDS011;43173;50.980;18.204;2022-11-20T03:37:34;57.00;;;25.40;;
57337;SDS011;43173;50.980;18.204;2022-11-20T03:40:00;64.10;;;26.50;;
57337;SDS011;43173;50.980;18.204;2022-11-20T03:42:26;62.30;;;24.00;;
57337;SDS011;43173;50.980;18.204;2022-11-20T03:45:10;61.90;;;24.70;;
57337;SDS011;43173;50.980;18.204;2022-11-20T03:47:36;66.30;;;24.30;;
57337;SDS011;43173;50.980;18.204;2022-11-20T03:50:02;59.50;;;24.10;;
57337;SDS011;43173;50.980;18.204;2022-11-20T03:52:28;63.80;;;25.80;;
57337;SDS011;43173;50.980;18.204;2022-11-20T03:54:54;63.20;;;25.70;;
57337;SDS011;43173;50.980;18.204;2022-11-20T03:57:20;58.00;;;23.80;;
57337;SDS011;43173;50.980;18.204;2022-11-20T03:59:46;57.10;;;26.60;;
57337;SDS011;43173;50.980;18.204;2022-11-20T04:02:11;55.40;;;23.80;;
57337;SDS011;43173;50.980;18.204;2022-11-20T04:04:37;60.90;;;24.10;;
57337;SDS011;43173;50.980;18.204;2022-11-20T04:07:03;66.20;;;26.30;;
57337;SDS011;43173;50.980;18.204;2022-11-20T04:09:28;59.80;;;26.20;;
57337;SDS011;43173;50.980;18.204;2022-11-20T04:11:54;65.00;;;26.00;;
57337;SDS011;43173;50.980;18.204;2022-11-20T04:14:20;68.40;;;28.20;;
57337;SDS011;43173;50.980;18.204;2022-11-20T04:16:46;70.80;;;29.10;;
57337;SDS011;43173;50.980;18.204;2022-11-20T04:19:13;60.40;;;25.80;;
57337;SDS011;43173;50.980;18.204;2022-11-20T04:21:40;57.40;;;23.60;;
57337;SDS011;43173;50.980;18.204;2022-11-20T04:24:07;58.60;;;24.30;;
57337;SDS011;43173;50.980;18.204;2022-11-20T04:26:33;65.30;;;25.40;;
57337;SDS011;43173;50.980;18.204;2022-11-20T04:28:59;68.90;;;27.40;;
57337;SDS011;43173;50.980;18.204;2022-11-20T04:31:28;68.10;;;26.80;;
57337;SDS011;43173;50.980;18.204;2022-11-20T04:33:54;69.90;;;28.50;;
57337;SDS011;43173;50.980;18.204;2022-11-20T04:36:22;63.10;;;26.00;;
57337;SDS011;43173;50.980;18.204;2022-11-20T04:38:52;59.00;;;24.30;;
57337;SDS011;43173;50.980;18.204;2022-11-20T04:41:20;90.00;;;35.30;;
57337;SDS011;43173;50.980;18.204;2022-11-20T04:43:51;94.80;;;38.30;;
57337;SDS011;43173;50.980;18.204;2022-11-20T04:46:19;77.00;;;31.80;;
57337;SDS011;43173;50.980;18.204;2022-11-20T04:48:46;80.00;;;32.40;;
57337;SDS011;43173;50.980;18.204;2022-11-20T04:51:12;78.90;;;32.30;;
57337;SDS011;43173;50.980;18.204;2022-11-20T04:53:38;63.80;;;25.10;;
57337;SDS011;43173;50.980;18.204;2022-11-20T04:56:05;63.80;;;25.50;;
57337;SDS011;43173;50.980;18.204;2022-11-20T04:58:33;71.00;;;28.60;;
57337;SDS011;43173;50.980;18.204;2022-11-20T05:03:28;64.80;;;28.30;;
57337;SDS011;43173;50.980;18.204;2022-11-20T05:05:54;77.70;;;31.20;;
57337;SDS011;43173;50.980;18.204;2022-11-20T05:08:19;83.90;;;33.10;;
57337;SDS011;43173;50.980;18.204;2022-11-20T05:10:45;88.40;;;34.00;;
57337;SDS011;43173;50.980;18.204;2022-11-20T05:13:11;81.20;;;32.20;;
57337;SDS011;43173;50.980;18.204;2022-11-20T05:15:37;68.40;;;29.30;;
57337;SDS011;43173;50.980;18.204;2022-11-20T05:18:02;63.90;;;26.80;;
57337;SDS011;43173;50.980;18.204;2022-11-20T05:20:28;83.30;;;33.00;;
57337;SDS011;43173;50.980;18.204;2022-11-20T05:22:56;62.90;;;25.10;;
57337;SDS011;43173;50.980;18.204;2022-11-20T05:25:22;73.60;;;30.80;;
57337;SDS011;43173;50.980;18.204;2022-11-20T05:27:48;80.10;;;32.90;;
57337;SDS011;43173;50.980;18.204;2022-11-20T05:30:14;75.30;;;31.00;;
57337;SDS011;43173;50.980;18.204;2022-11-20T05:32:40;84.70;;;32.70;;
57337;SDS011;43173;50.980;18.204;2022-11-20T05:35:06;76.70;;;30.50;;
57337;SDS011;43173;50.980;18.204;2022-11-20T05:37:32;79.40;;;32.30;;
57337;SDS011;43173;50.980;18.204;2022-11-20T05:39:57;80.30;;;31.00;;
57337;SDS011;43173;50.980;18.204;2022-11-20T05:42:23;88.60;;;34.80;;
57337;SDS011;43173;50.980;18.204;2022-11-20T05:44:55;87.00;;;35.40;;
57337;SDS011;43173;50.980;18.204;2022-11-20T05:47:24;92.80;;;37.70;;
57337;SDS011;43173;50.980;18.204;2022-11-20T05:49:51;93.50;;;36.40;;
57337;SDS011;43173;50.980;18.204;2022-11-20T05:52:17;84.20;;;35.10;;
57337;SDS011;43173;50.980;18.204;2022-11-20T05:54:42;90.30;;;35.90;;
57337;SDS011;43173;50.980;18.204;2022-11-20T05:57:08;80.70;;;33.00;;
57337;SDS011;43173;50.980;18.204;2022-11-20T05:59:33;80.80;;;33.00;;
57337;SDS011;43173;50.980;18.204;2022-11-20T06:01:59;86.50;;;35.40;;
57337;SDS011;43173;50.980;18.204;2022-11-20T06:04:25;90.90;;;34.10;;
57337;SDS011;43173;50.980;18.204;2022-11-20T06:06:50;91.50;;;35.50;;
57337;SDS011;43173;50.980;18.204;2022-11-20T06:09:16;78.50;;;34.20;;
57337;SDS011;43173;50.980;18.204;2022-11-20T06:11:42;89.90;;;34.00;;
57337;SDS011;43173;50.980;18.204;2022-11-20T06:14:07;88.80;;;33.90;;
57337;SDS011;43173;50.980;18.204;2022-11-20T06:16:33;77.80;;;32.30;;
57337;SDS011;43173;50.980;18.204;2022-11-20T06:18:59;58.70;;;23.90;;
57337;SDS011;43173;50.980;18.204;2022-11-20T06:21:24;78.70;;;30.60;;
57337;SDS011;43173;50.980;18.204;2022-11-20T06:23:50;71.80;;;29.20;;
57337;SDS011;43173;50.980;18.204;2022-11-20T06:26:18;79.00;;;31.00;;
57337;SDS011;43173;50.980;18.204;2022-11-20T06:28:48;87.10;;;34.00;;
57337;SDS011;43173;50.980;18.204;2022-11-20T06:31:15;85.60;;;34.00;;
57337;SDS011;43173;50.980;18.204;2022-11-20T06:33:43;76.40;;;33.00;;
57337;SDS011;43173;50.980;18.204;2022-11-20T06:36:10;70.90;;;31.60;;
57337;SDS011;43173;50.980;18.204;2022-11-20T06:38:37;90.80;;;36.10;;
57337;SDS011;43173;50.980;18.204;2022-11-20T06:41:04;62.60;;;27.70;;
57337;SDS011;43173;50.980;18.204;2022-11-20T06:43:30;98.10;;;36.30;;
57337;SDS011;43173;50.980;18.204;2022-11-20T06:45:57;104.80;;;39.00;;
57337;SDS011;43173;50.980;18.204;2022-11-20T06:48:25;107.10;;;41.10;;
57337;SDS011;43173;50.980;18.204;2022-11-20T06:50:52;107.40;;;41.10;;
57337;SDS011;43173;50.980;18.204;2022-11-20T06:53:18;105.00;;;40.60;;
57337;SDS011;43173;50.980;18.204;2022-11-20T06:55:44;120.60;;;43.40;;
57337;SDS011;43173;50.980;18.204;2022-11-20T06:58:11;112.60;;;45.30;;
57337;SDS011;43173;50.980;18.204;2022-11-20T07:00:37;120.00;;;46.70;;
57337;SDS011;43173;50.980;18.204;2022-11-20T07:03:03;121.00;;;49.00;;
57337;SDS011;43173;50.980;18.204;2022-11-20T07:05:29;101.30;;;43.60;;
57337;SDS011;43173;50.980;18.204;2022-11-20T07:07:55;112.60;;;42.80;;
57337;SDS011;43173;50.980;18.204;2022-11-20T07:10:22;104.90;;;40.40;;
57337;SDS011;43173;50.980;18.204;2022-11-20T07:12:49;124.40;;;45.20;;
57337;SDS011;43173;50.980;18.204;2022-11-20T07:15:16;118.00;;;44.30;;
57337;SDS011;43173;50.980;18.204;2022-11-20T07:17:42;121.40;;;45.90;;
57337;SDS011;43173;50.980;18.204;2022-11-20T07:20:08;119.30;;;44.20;;
57337;SDS011;43173;50.980;18.204;2022-11-20T07:22:34;105.40;;;40.20;;
57337;SDS011;43173;50.980;18.204;2022-11-20T07:24:59;113.60;;;43.20;;
57337;SDS011;43173;50.980;18.204;2022-11-20T07:27:25;109.80;;;43.40;;
57337;SDS011;43173;50.980;18.204;2022-11-20T07:29:51;119.40;;;41.70;;
57337;SDS011;43173;50.980;18.204;2022-11-20T07:32:17;114.30;;;45.80;;
57337;SDS011;43173;50.980;18.204;2022-11-20T07:34:43;123.70;;;47.90;;
57337;SDS011;43173;50.980;18.204;2022-11-20T07:37:08;126.60;;;47.30;;
57337;SDS011;43173;50.980;18.204;2022-11-20T07:39:34;108.80;;;44.40;;
57337;SDS011;43173;50.980;18.204;2022-11-20T07:41:59;135.60;;;49.20;;
57337;SDS011;43173;50.980;18.204;2022-11-20T07:44:25;106.30;;;41.90;;
57337;SDS011;43173;50.980;18.204;2022-11-20T07:46:50;99.10;;;42.40;;
57337;SDS011;43173;50.980;18.204;2022-11-20T07:49:16;105.70;;;42.30;;
57337;SDS011;43173;50.980;18.204;2022-11-20T07:51:42;65.50;;;26.80;;
57337;SDS011;43173;50.980;18.204;2022-11-20T07:54:07;86.70;;;35.10;;
57337;SDS011;43173;50.980;18.204;2022-11-20T07:56:33;97.00;;;40.50;;
57337;SDS011;43173;50.980;18.204;2022-11-20T07:58:59;95.40;;;38.20;;
57337;SDS011;43173;50.980;18.204;2022-11-20T08:01:25;83.00;;;35.30;;
57337;SDS011;43173;50.980;18.204;2022-11-20T08:03:51;81.60;;;35.10;;
57337;SDS011;43173;50.980;18.204;2022-11-20T08:06:16;96.90;;;36.60;;
57337;SDS011;43173;50.980;18.204;2022-11-20T08:08:43;95.00;;;37.60;;
57337;SDS011;43173;50.980;18.204;2022-11-20T08:11:09;94.20;;;37.70;;
57337;SDS011;43173;50.980;18.204;2022-11-20T08:13:54;80.10;;;35.60;;
57337;SDS011;43173;50.980;18.204;2022-11-20T08:16:43;80.50;;;35.10;;
57337;SDS011;43173;50.980;18.204;2022-11-20T08:19:11;86.20;;;36.30;;
57337;SDS011;43173;50.980;18.204;2022-11-20T08:21:37;88.70;;;35.40;;
57337;SDS011;43173;50.980;18.204;2022-11-20T08:24:04;78.80;;;35.30;;
57337;SDS011;43173;50.980;18.204;2022-11-20T08:26:30;88.00;;;36.40;;
57337;SDS011;43173;50.980;18.204;2022-11-20T08:28:56;89.80;;;37.50;;
57337;SDS011;43173;50.980;18.204;2022-11-20T08:31:22;103.50;;;40.80;;
57337;SDS011;43173;50.980;18.204;2022-11-20T08:33:49;102.90;;;42.00;;
57337;SDS011;43173;50.980;18.204;2022-11-20T08:36:15;93.20;;;38.40;;
57337;SDS011;43173;50.980;18.204;2022-11-20T08:38:41;80.80;;;36.20;;
57337;SDS011;43173;50.980;18.204;2022-11-20T08:41:07;95.50;;;40.80;;
57337;SDS011;43173;50.980;18.204;2022-11-20T08:46:37;94.60;;;39.50;;
57337;SDS011;43173;50.980;18.204;2022-11-20T08:49:07;90.30;;;39.00;;
57337;SDS011;43173;50.980;18.204;2022-11-20T08:51:34;99.60;;;40.00;;
57337;SDS011;43173;50.980;18.204;2022-11-20T08:54:01;103.50;;;40.40;;
57337;SDS011;43173;50.980;18.204;2022-11-20T08:56:27;101.30;;;40.70;;
57337;SDS011;43173;50.980;18.204;2022-11-20T08:58:52;91.90;;;36.70;;
57337;SDS011;43173;50.980;18.204;2022-11-20T09:01:19;92.80;;;38.80;;
57337;SDS011;43173;50.980;18.204;2022-11-20T09:03:46;90.00;;;37.00;;
57337;SDS011;43173;50.980;18.204;2022-11-20T09:06:12;91.30;;;35.20;;
57337;SDS011;43173;50.980;18.204;2022-11-20T09:08:38;84.60;;;37.10;;
57337;SDS011;43173;50.980;18.204;2022-11-20T09:11:05;100.20;;;42.80;;
57337;SDS011;43173;50.980;18.204;2022-11-20T09:13:32;84.40;;;35.90;;
57337;SDS011;43173;50.980;18.204;2022-11-20T09:15:59;88.50;;;38.10;;
57337;SDS011;43173;50.980;18.204;2022-11-20T09:18:27;94.80;;;38.10;;
57337;SDS011;43173;50.980;18.204;2022-11-20T09:21:00;93.20;;;40.70;;
57337;SDS011;43173;50.980;18.204;2022-11-20T09:23:27;84.40;;;36.10;;
57337;SDS011;43173;50.980;18.204;2022-11-20T09:25:55;86.90;;;37.00;;
57337;SDS011;43173;50.980;18.204;2022-11-20T09:28:25;79.80;;;33.60;;
57337;SDS011;43173;50.980;18.204;2022-11-20T09:30:51;86.20;;;36.90;;
57337;SDS011;43173;50.980;18.204;2022-11-20T09:33:17;84.60;;;36.10;;
57337;SDS011;43173;50.980;18.204;2022-11-20T09:35:43;101.10;;;38.20;;
57337;SDS011;43173;50.980;18.204;2022-11-20T09:38:09;81.60;;;36.90;;
57337;SDS011;43173;50.980;18.204;2022-11-20T09:40:37;99.90;;;39.90;;
57337;SDS011;43173;50.980;18.204;2022-11-20T09:45:35;80.20;;;33.40;;
57337;SDS011;43173;50.980;18.204;2022-11-20T09:56:30;61.40;;;26.10;;
57337;SDS011;43173;50.980;18.204;2022-11-20T09:58:59;66.20;;;29.60;;
57337;SDS011;43173;50.980;18.204;2022-11-20T10:01:35;55.80;;;25.00;;
57337;SDS011;43173;50.980;18.204;2022-11-20T10:04:06;52.10;;;22.10;;
57337;SDS011;43173;50.980;18.204;2022-11-20T10:06:44;58.60;;;25.40;;
57337;SDS011;43173;50.980;18.204;2022-11-20T10:09:36;62.70;;;24.90;;
57337;SDS011;43173;50.980;18.204;2022-11-20T10:26:22;54.40;;;25.20;;
57337;SDS011;43173;50.980;18.204;2022-11-20T10:31:46;43.80;;;20.70;;
57337;SDS011;43173;50.980;18.204;2022-11-20T10:37:27;52.40;;;22.50;;
57337;SDS011;43173;50.980;18.204;2022-11-20T10:39:55;52.30;;;23.20;;
57337;SDS011;43173;50.980;18.204;2022-11-20T10:42:45;54.30;;;23.90;;
57337;SDS011;43173;50.980;18.204;2022-11-20T10:56:31;49.10;;;21.60;;
57337;SDS011;43173;50.980;18.204;2022-11-20T11:04:51;41.00;;;19.60;;
57337;SDS011;43173;50.980;18.204;2022-11-20T11:09:50;41.80;;;18.60;;
57337;SDS011;43173;50.980;18.204;2022-11-20T11:12:19;43.80;;;19.80;;
57337;SDS011;43173;50.980;18.204;2022-11-20T11:14:48;44.40;;;20.70;;
57337;SDS011;43173;50.980;18.204;2022-11-20T11:17:23;50.20;;;21.20;;
57337;SDS011;43173;50.980;18.204;2022-11-20T11:20:00;42.40;;;20.40;;
57337;SDS011;43173;50.980;18.204;2022-11-20T11:22:31;40.40;;;18.70;;
57337;SDS011;43173;50.980;18.204;2022-11-20T11:24:58;46.10;;;20.90;;
57337;SDS011;43173;50.980;18.204;2022-11-20T11:27:24;42.50;;;19.80;;
57337;SDS011;43173;50.980;18.204;2022-11-20T11:29:50;42.10;;;19.60;;
57337;SDS011;43173;50.980;18.204;2022-11-20T11:32:29;42.10;;;19.80;;
57337;SDS011;43173;50.980;18.204;2022-11-20T11:34:58;44.20;;;20.20;;
57337;SDS011;43173;50.980;18.204;2022-11-20T11:37:33;43.60;;;20.50;;
57337;SDS011;43173;50.980;18.204;2022-11-20T11:40:01;40.80;;;21.20;;
57337;SDS011;43173;50.980;18.204;2022-11-20T11:42:28;42.40;;;20.00;;
57337;SDS011;43173;50.980;18.204;2022-11-20T11:44:56;39.60;;;21.00;;
57337;SDS011;43173;50.980;18.204;2022-11-20T12:01:13;41.40;;;22.10;;
57337;SDS011;43173;50.980;18.204;2022-11-20T12:04:05;40.10;;;21.50;;
57337;SDS011;43173;50.980;18.204;2022-11-20T12:06:39;40.00;;;21.80;;
57337;SDS011;43173;50.980;18.204;2022-11-20T12:09:08;39.90;;;21.30;;
57337;SDS011;43173;50.980;18.204;2022-11-20T12:14:24;44.50;;;23.50;;
57337;SDS011;43173;50.980;18.204;2022-11-20T12:16:56;48.70;;;26.40;;
57337;SDS011;43173;50.980;18.204;2022-11-20T12:19:23;47.50;;;26.30;;
57337;SDS011;43173;50.980;18.204;2022-11-20T12:21:52;46.30;;;25.60;;
57337;SDS011;43173;50.980;18.204;2022-11-20T12:30:01;48.90;;;27.70;;
57337;SDS011;43173;50.980;18.204;2022-11-20T12:38:55;31.90;;;17.70;;
57337;SDS011;43173;50.980;18.204;2022-11-20T13:06:53;30.30;;;17.30;;
57337;SDS011;43173;50.980;18.204;2022-11-20T13:09:20;27.80;;;16.90;;
57337;SDS011;43173;50.980;18.204;2022-11-20T13:12:01;31.50;;;17.70;;
57337;SDS011;43173;50.980;18.204;2022-11-20T13:14:40;39.30;;;20.60;;
57337;SDS011;43173;50.980;18.204;2022-11-20T13:19:52;36.50;;;20.50;;
57337;SDS011;43173;50.980;18.204;2022-11-20T13:22:26;39.20;;;21.90;;
57337;SDS011;43173;50.980;18.204;2022-11-20T13:25:23;37.80;;;21.30;;
57337;SDS011;43173;50.980;18.204;2022-11-20T13:27:53;40.30;;;22.10;;
57337;SDS011;43173;50.980;18.204;2022-11-20T13:30:21;47.70;;;26.50;;
57337;SDS011;43173;50.980;18.204;2022-11-20T13:32:57;49.10;;;26.10;;
57337;SDS011;43173;50.980;18.204;2022-11-20T13:38:02;47.10;;;27.40;;
57337;SDS011;43173;50.980;18.204;2022-11-20T13:41:22;51.10;;;28.70;;
57337;SDS011;43173;50.980;18.204;2022-11-20T13:43:48;54.10;;;30.00;;
57337;SDS011;43173;50.980;18.204;2022-11-20T13:46:14;58.20;;;31.30;;
57337;SDS011;43173;50.980;18.204;2022-11-20T13:48:41;56.30;;;30.90;;
57337;SDS011;43173;50.980;18.204;2022-11-20T13:59:57;59.60;;;31.60;;
57337;SDS011;43173;50.980;18.204;2022-11-20T14:02:29;61.60;;;28.60;;
57337;SDS011;43173;50.980;18.204;2022-11-20T14:04:57;77.00;;;34.20;;
57337;SDS011;43173;50.980;18.204;2022-11-20T14:07:25;73.10;;;32.20;;
57337;SDS011;43173;50.980;18.204;2022-11-20T14:10:03;74.60;;;31.20;;
57337;SDS011;43173;50.980;18.204;2022-11-20T14:12:30;68.10;;;29.20;;
57337;SDS011;43173;50.980;18.204;2022-11-20T14:14:57;73.00;;;29.50;;
57337;SDS011;43173;50.980;18.204;2022-11-20T14:17:31;70.60;;;30.40;;
57337;SDS011;43173;50.980;18.204;2022-11-20T14:19:58;77.60;;;33.20;;
57337;SDS011;43173;50.980;18.204;2022-11-20T14:22:27;80.70;;;34.00;;
57337;SDS011;43173;50.980;18.204;2022-11-20T14:27:38;69.40;;;30.40;;
57337;SDS011;43173;50.980;18.204;2022-11-20T14:30:06;71.80;;;32.70;;
57337;SDS011;43173;50.980;18.204;2022-11-20T14:32:38;65.20;;;28.50;;
57337;SDS011;43173;50.980;18.204;2022-11-20T14:35:08;76.70;;;32.60;;
57337;SDS011;43173;50.980;18.204;2022-11-20T14:37:37;71.70;;;31.80;;
57337;SDS011;43173;50.980;18.204;2022-11-20T14:40:14;67.70;;;30.90;;
57337;SDS011;43173;50.980;18.204;2022-11-20T14:42:47;67.40;;;31.60;;
57337;SDS011;43173;50.980;18.204;2022-11-20T14:45:12;71.90;;;30.90;;
57337;SDS011;43173;50.980;18.204;2022-11-20T14:47:38;76.50;;;32.40;;
57337;SDS011;43173;50.980;18.204;2022-11-20T14:50:07;79.20;;;31.10;;
57337;SDS011;43173;50.980;18.204;2022-11-20T14:55:31;90.30;;;34.40;;
57337;SDS011;43173;50.980;18.204;2022-11-20T14:58:02;99.90;;;38.10;;
57337;SDS011;43173;50.980;18.204;2022-11-20T15:00:30;91.80;;;36.60;;
57337;SDS011;43173;50.980;18.204;2022-11-20T15:02:57;85.10;;;36.10;;
57337;SDS011;43173;50.980;18.204;2022-11-20T15:05:45;92.40;;;35.80;;
57337;SDS011;43173;50.980;18.204;2022-11-20T15:08:13;88.60;;;34.90;;
57337;SDS011;43173;50.980;18.204;2022-11-20T15:10:45;78.50;;;31.10;;
57337;SDS011;43173;50.980;18.204;2022-11-20T15:13:16;74.10;;;30.30;;
57337;SDS011;43173;50.980;18.204;2022-11-20T15:15:46;67.80;;;28.80;;
57337;SDS011;43173;50.980;18.204;2022-11-20T15:21:03;62.00;;;27.20;;
57337;SDS011;43173;50.980;18.204;2022-11-20T15:23:31;65.60;;;26.00;;
57337;SDS011;43173;50.980;18.204;2022-11-20T15:25:57;60.40;;;25.70;;
57337;SDS011;43173;50.980;18.204;2022-11-20T15:28:26;63.20;;;26.90;;
57337;SDS011;43173;50.980;18.204;2022-11-20T15:33:21;57.40;;;24.50;;
57337;SDS011;43173;50.980;18.204;2022-11-20T15:35:47;71.00;;;27.50;;
57337;SDS011;43173;50.980;18.204;2022-11-20T15:38:12;81.10;;;30.90;;
57337;SDS011;43173;50.980;18.204;2022-11-20T15:40:39;73.20;;;29.50;;
57337;SDS011;43173;50.980;18.204;2022-11-20T15:43:05;76.10;;;28.90;;
57337;SDS011;43173;50.980;18.204;2022-11-20T15:45:33;79.00;;;28.40;;
57337;SDS011;43173;50.980;18.204;2022-11-20T15:51:05;90.20;;;32.90;;
57337;SDS011;43173;50.980;18.204;2022-11-20T15:53:36;91.10;;;33.10;;
57337;SDS011;43173;50.980;18.204;2022-11-20T15:56:03;77.00;;;30.00;;
57337;SDS011;43173;50.980;18.204;2022-11-20T15:58:29;76.40;;;31.60;;
57337;SDS011;43173;50.980;18.204;2022-11-20T16:00:55;82.50;;;32.00;;
57337;SDS011;43173;50.980;18.204;2022-11-20T16:03:21;67.30;;;28.50;;
57337;SDS011;43173;50.980;18.204;2022-11-20T16:05:47;82.00;;;30.00;;
57337;SDS011;43173;50.980;18.204;2022-11-20T16:08:13;75.40;;;29.30;;
57337;SDS011;43173;50.980;18.204;2022-11-20T16:10:39;72.20;;;27.40;;
57337;SDS011;43173;50.980;18.204;2022-11-20T16:13:10;74.70;;;28.90;;
57337;SDS011;43173;50.980;18.204;2022-11-20T16:15:57;67.40;;;27.40;;
57337;SDS011;43173;50.980;18.204;2022-11-20T16:18:24;74.20;;;29.80;;
57337;SDS011;43173;50.980;18.204;2022-11-20T16:20:52;89.10;;;34.50;;
57337;SDS011;43173;50.980;18.204;2022-11-20T16:23:19;64.00;;;26.40;;
57337;SDS011;43173;50.980;18.204;2022-11-20T16:25:46;70.80;;;27.40;;
57337;SDS011;43173;50.980;18.204;2022-11-20T16:28:12;67.70;;;27.40;;
57337;SDS011;43173;50.980;18.204;2022-11-20T16:30:39;67.50;;;27.40;;
57337;SDS011;43173;50.980;18.204;2022-11-20T16:33:08;71.20;;;28.30;;
57337;SDS011;43173;50.980;18.204;2022-11-20T16:35:37;69.10;;;27.40;;
57337;SDS011;43173;50.980;18.204;2022-11-20T16:38:03;76.70;;;31.00;;
57337;SDS011;43173;50.980;18.204;2022-11-20T16:40:28;67.00;;;27.40;;
57337;SDS011;43173;50.980;18.204;2022-11-20T16:42:54;75.10;;;31.10;;
57337;SDS011;43173;50.980;18.204;2022-11-20T16:45:20;83.90;;;35.90;;